Hartwell, GA

8:11 PM EDT on September 20, 2014 (GMT -0400)
Carrie Craft Road | Change Station
CLOSE
Current Station
Personal Weather Station
Location: Bowersville, GA
Elevation: 865 ft
Nearby Weather Stations

Elev 865 ft 34.39 °N, 83.03 °W | Updated 0 second ago

Clear
Clear
67.9 °F
Feels Like 67.9 °F
N
0.0
Wind Variable Wind from West
Gusts 0.0 mph

Today
High -- | Low -- °F
--% Chance of Precip.
Yesterday
High -- | Low -- °F
Precip. -- in
7:18 AM 7:31 PM
Waning Crescent, 10% visible
Pressure 30.02 in
Visibility 10.0 miles
Clouds Clear
Dew Point 62 °F
Humidity 83%
Rainfall 0.00 in
Snow Depth Not available.
UV 0 out of 12
Pollen 8.10 out of 12
Air Quality Not available.
Flu Activity Not available.
METAR KAND 202356Z AUTO 00000KT 10SM CLR 22/16 A3004 RMK AO2 SLP164 T02220161 10278 20222 56006

More Conditions Fewer Conditions

Pressure 30.02 in
Visibility 10.0 miles
Clouds Clear
Dew Point 62 °F
Humidity 83%
Rainfall 0.00 in
Snow Depth Not available.
UV 0 out of 12
Pollen 8.10 out of 12
Air Quality Not available.
Flu Activity Not available.
METAR KAND 202356Z AUTO 00000KT 10SM CLR 22/16 A3004 RMK AO2 SLP164 T02220161 10278 20222 56006

More Conditions Fewer Conditions

10-Day Weather Forecast

Almanac

Astronomy

Sep. 20, 2014 Rise Set
Actual Time 7:18 AM EDT 7:31 PM EDT
Civil Twilight 6:53 AM EDT 7:56 PM EDT
Nautical Twilight 6:23 AM EDT 8:25 PM EDT
Astronomical Twilight 5:54 AM EDT 8:55 PM EDT
Moon 4:03 AM EDT (9/20) 5:28 PM EDT (9/20)
Length of Visible Light 13h 03m
Length of Day
12h 12m
Tomorrow will be 2m 7s shorter.
Waning Crescent, 10% of the Moon is Illuminated
Today
Waning Crescent
Sep 24
New
Oct 1
First Quarter
Oct 8
Full
Oct 15
Last Quarter

Today's Extremes

State Highs State Lows

Community

WunderPhotos

Upload Photos

1,754,997 photos uploaded!

WunderBlogs® & News

Nearby

Snow Depth

Station Depth Elevation
No new snow has been reported.

Earthquake Activity

City Distance Mag. Time & Date
Sweetwater, Tennessee 122 miles 2.5 3:54 PM EDT
2014-09-20
New Ellenton, South Carolina 93 miles 2.6 4:38 PM EDT
2014-09-19
Minimum magnitude displayed is 2.5.

Coastal Water Temperatures

Place Temperature
No Stations Reporting

Nearby Weather Stations